createdAt,value
2023-05-19T00:00:41.386Z,1013.31
2023-05-19T00:01:41.377Z,1013.33
2023-05-19T00:02:41.505Z,1013.36
2023-05-19T00:03:41.439Z,1013.31
2023-05-19T00:04:41.359Z,1013.31
2023-05-19T00:05:41.400Z,1013.35
2023-05-19T00:06:41.337Z,1013.36
2023-05-19T00:07:41.312Z,1013.41
2023-05-19T00:08:41.304Z,1013.38
2023-05-19T00:09:41.346Z,1013.35
2023-05-19T00:10:41.296Z,1013.44
2023-05-19T00:11:41.298Z,1013.37
2023-05-19T00:12:41.265Z,1013.42
2023-05-19T00:13:41.246Z,1013.42
2023-05-19T00:14:41.245Z,1013.42
2023-05-19T00:15:41.303Z,1013.45
2023-05-19T00:16:41.221Z,1013.44
2023-05-19T00:17:41.236Z,1013.47
2023-05-19T00:18:41.200Z,1013.45
2023-05-19T00:19:41.191Z,1013.49
2023-05-19T00:20:41.310Z,1013.46
2023-05-19T00:21:41.208Z,1013.50
2023-05-19T00:22:41.158Z,1013.47
2023-05-19T00:23:41.144Z,1013.46
2023-05-19T00:24:41.136Z,1013.44
2023-05-19T00:25:41.126Z,1013.45
2023-05-19T00:26:41.135Z,1013.44
2023-05-19T00:27:41.130Z,1013.48
2023-05-19T00:28:41.094Z,1013.48
2023-05-19T00:29:41.085Z,1013.45
2023-05-19T00:30:41.066Z,1013.51
2023-05-19T00:31:41.083Z,1013.50
2023-05-19T00:32:41.120Z,1013.50
2023-05-19T00:33:41.111Z,1013.54
2023-05-19T00:34:41.040Z,1013.56
2023-05-19T00:35:41.043Z,1013.55
2023-05-19T00:36:41.013Z,1013.57
2023-05-19T00:37:40.989Z,1013.60
2023-05-19T00:38:40.996Z,1013.54
2023-05-19T00:39:41.001Z,1013.58
2023-05-19T00:40:40.971Z,1013.53
2023-05-19T00:41:40.966Z,1013.51
2023-05-19T00:42:40.959Z,1013.50
2023-05-19T00:43:40.938Z,1013.48
2023-05-19T00:44:40.934Z,1013.55
2023-05-19T00:45:40.952Z,1013.52
2023-05-19T00:46:40.975Z,1013.56
2023-05-19T00:47:40.921Z,1013.56
2023-05-19T00:48:40.889Z,1013.55
2023-05-19T00:49:40.881Z,1013.50
2023-05-19T00:50:40.873Z,1013.54
2023-05-19T00:51:40.892Z,1013.51
2023-05-19T00:52:40.861Z,1013.53
2023-05-19T00:53:40.846Z,1013.55
2023-05-19T00:54:40.836Z,1013.54
2023-05-19T00:55:40.822Z,1013.53
2023-05-19T00:56:40.823Z,1013.55
2023-05-19T00:57:40.821Z,1013.50
2023-05-19T00:58:40.791Z,1013.53
2023-05-19T00:59:40.781Z,1013.51
2023-05-19T01:00:40.826Z,1013.53
2023-05-19T01:01:40.762Z,1013.57
2023-05-19T01:02:40.825Z,1013.50
2023-05-19T01:03:40.944Z,1013.52
2023-05-19T01:04:40.741Z,1013.58
2023-05-19T01:05:40.727Z,1013.54
2023-05-19T01:06:40.714Z,1013.56
2023-05-19T01:07:40.704Z,1013.57
2023-05-19T01:08:40.687Z,1013.57
2023-05-19T01:09:40.757Z,1013.59
2023-05-19T01:10:40.677Z,1013.56
2023-05-19T01:11:40.671Z,1013.58
2023-05-19T01:12:40.667Z,1013.54
2023-05-19T01:13:42.182Z,1013.52
2023-05-19T01:14:40.634Z,1013.51
2023-05-19T01:15:40.649Z,1013.52
2023-05-19T01:16:40.665Z,1013.52
2023-05-19T01:17:40.643Z,1013.55
2023-05-19T01:18:40.624Z,1013.51
2023-05-19T01:19:40.589Z,1013.54
2023-05-19T01:20:40.561Z,1013.51
2023-05-19T01:21:40.585Z,1013.56
2023-05-19T01:22:40.546Z,1013.54
2023-05-19T01:23:40.547Z,1013.56
2023-05-19T01:24:40.525Z,1013.58
2023-05-19T01:25:40.521Z,1013.56
2023-05-19T01:26:40.506Z,1013.54
2023-05-19T01:27:40.526Z,1013.58
2023-05-19T01:28:40.502Z,1013.63
2023-05-19T01:29:40.479Z,1013.64
2023-05-19T01:30:40.420Z,1013.59
2023-05-19T01:31:40.457Z,1013.59
2023-05-19T01:32:40.503Z,1013.59
2023-05-19T01:33:40.469Z,1013.64
2023-05-19T01:34:40.417Z,1013.63
2023-05-19T01:35:40.417Z,1013.63
2023-05-19T01:36:40.426Z,1013.67
2023-05-19T01:37:40.402Z,1013.68
2023-05-19T01:38:40.386Z,1013.66
2023-05-19T01:39:40.410Z,1013.71
2023-05-19T01:40:40.375Z,1013.67
2023-05-19T01:41:40.319Z,1013.69
2023-05-19T01:42:40.356Z,1013.67
2023-05-19T01:43:40.349Z,1013.66
2023-05-19T01:44:40.332Z,1013.67
2023-05-19T01:45:40.403Z,1013.66
2023-05-19T01:46:40.272Z,1013.60
2023-05-19T01:47:40.323Z,1013.63
2023-05-19T01:48:40.238Z,1013.60
2023-05-19T01:49:40.244Z,1013.64
2023-05-19T01:50:40.223Z,1013.65
2023-05-19T01:51:40.234Z,1013.64
2023-05-19T01:52:40.201Z,1013.63
2023-05-19T01:53:40.197Z,1013.69
2023-05-19T01:54:40.192Z,1013.64
2023-05-19T01:55:40.177Z,1013.61
2023-05-19T01:56:40.161Z,1013.64
2023-05-19T01:57:40.174Z,1013.68
2023-05-19T01:58:40.148Z,1013.61
2023-05-19T01:59:40.138Z,1013.66
2023-05-19T02:00:40.118Z,1013.69
2023-05-19T02:01:40.234Z,1013.74
2023-05-19T02:02:40.132Z,1013.77
2023-05-19T02:03:40.126Z,1013.79
2023-05-19T02:04:40.274Z,1013.78
2023-05-19T02:05:40.086Z,1013.75
2023-05-19T02:06:40.072Z,1013.77
2023-05-19T02:07:40.062Z,1013.75
2023-05-19T02:08:40.047Z,1013.80
2023-05-19T02:09:40.070Z,1013.79
2023-05-19T02:10:40.025Z,1013.76
2023-05-19T02:11:40.023Z,1013.78
2023-05-19T02:12:40.004Z,1013.78
2023-05-19T02:13:39.993Z,1013.76
2023-05-19T02:14:39.990Z,1013.79
2023-05-19T02:15:40.046Z,1013.77
2023-05-19T02:16:39.978Z,1013.77
2023-05-19T02:17:39.981Z,1013.74
2023-05-19T02:18:39.953Z,1013.70
2023-05-19T02:19:39.925Z,1013.72
2023-05-19T02:20:39.921Z,1013.74
2023-05-19T02:21:39.928Z,1013.72
2023-05-19T02:22:39.908Z,1013.76
2023-05-19T02:23:39.890Z,1013.73
2023-05-19T02:24:39.866Z,1013.73
2023-05-19T02:25:39.867Z,1013.75
2023-05-19T02:26:39.862Z,1013.77
2023-05-19T02:27:39.889Z,1013.78
2023-05-19T02:28:39.835Z,1013.75
2023-05-19T02:29:39.828Z,1013.76
2023-05-19T02:30:39.811Z,1013.78
2023-05-19T02:31:39.875Z,1013.82
2023-05-19T02:32:39.859Z,1013.75
2023-05-19T02:33:39.816Z,1013.77
2023-05-19T02:34:39.771Z,1013.81
2023-05-19T02:35:39.774Z,1013.79
2023-05-19T02:36:39.748Z,1013.75
2023-05-19T02:37:39.745Z,1013.78
2023-05-19T02:38:39.726Z,1013.79
2023-05-19T02:39:39.753Z,1013.72
2023-05-19T02:40:39.713Z,1013.74
2023-05-19T02:41:39.702Z,1013.72
2023-05-19T02:42:39.707Z,1013.74
2023-05-19T02:43:39.679Z,1013.76
2023-05-19T02:44:39.687Z,1013.78
2023-05-19T02:45:39.696Z,1013.78
2023-05-19T02:46:39.675Z,1013.75
2023-05-19T02:47:39.665Z,1013.77
2023-05-19T02:48:39.634Z,1013.76
2023-05-19T02:49:39.639Z,1013.78
2023-05-19T02:50:39.627Z,1013.81
2023-05-19T02:51:39.638Z,1013.77
2023-05-19T02:52:39.593Z,1013.82
2023-05-19T02:53:39.590Z,1013.77
2023-05-19T02:54:39.565Z,1013.80
2023-05-19T02:55:39.571Z,1013.82
2023-05-19T02:56:39.559Z,1013.85
2023-05-19T02:57:39.572Z,1013.88
2023-05-19T02:58:39.565Z,1013.86
2023-05-19T02:59:39.529Z,1013.81
2023-05-19T03:00:39.510Z,1013.87
2023-05-19T03:01:39.603Z,1013.83
2023-05-19T03:02:39.570Z,1013.85
2023-05-19T03:03:39.602Z,1013.86
2023-05-19T03:04:39.469Z,1013.88
2023-05-19T03:05:39.484Z,1013.87
2023-05-19T03:06:39.466Z,1013.85
2023-05-19T03:07:39.442Z,1013.85
2023-05-19T03:08:41.632Z,1013.83
2023-05-19T03:09:39.451Z,1013.89
2023-05-19T03:10:39.408Z,1013.89
2023-05-19T03:11:39.403Z,1013.90
2023-05-19T03:12:39.394Z,1013.93
2023-05-19T03:13:39.394Z,1013.91
2023-05-19T03:14:39.384Z,1013.91
2023-05-19T03:15:39.496Z,1013.98
2023-05-19T03:16:39.438Z,1013.98
2023-05-19T03:17:39.530Z,1014.08
2023-05-19T03:18:39.334Z,1014.09
2023-05-19T03:19:39.323Z,1014.07
2023-05-19T03:20:41.526Z,1014.08
2023-05-19T03:21:39.324Z,1014.13
2023-05-19T03:22:39.301Z,1014.15
2023-05-19T03:23:39.296Z,1014.12
2023-05-19T03:24:39.269Z,1014.05
2023-05-19T03:25:39.265Z,1014.10
2023-05-19T03:26:39.252Z,1014.10
2023-05-19T03:27:39.268Z,1014.14
2023-05-19T03:28:39.228Z,1014.14
2023-05-19T03:29:39.223Z,1014.13
2023-05-19T03:30:39.465Z,1014.14
2023-05-19T03:31:39.530Z,1014.16
2023-05-19T03:32:39.272Z,1014.17
2023-05-19T03:33:39.232Z,1014.17
2023-05-19T03:34:39.163Z,1014.16
2023-05-19T03:35:39.168Z,1014.14
2023-05-19T03:36:39.147Z,1014.14
2023-05-19T03:37:39.139Z,1014.15
2023-05-19T03:38:39.137Z,1014.15
2023-05-19T03:39:39.149Z,1014.11
2023-05-19T03:40:39.115Z,1014.12
2023-05-19T03:41:39.107Z,1014.11
2023-05-19T03:42:39.092Z,1014.13
2023-05-19T03:43:39.080Z,1014.02
2023-05-19T03:44:39.084Z,1014.13
2023-05-19T03:45:39.124Z,1014.09
2023-05-19T03:46:39.082Z,1014.09
2023-05-19T03:47:39.111Z,1014.12
2023-05-19T03:48:39.040Z,1014.05
2023-05-19T03:49:39.031Z,1014.06
2023-05-19T03:50:39.035Z,1014.10
2023-05-19T03:51:39.040Z,1014.05
2023-05-19T03:52:38.991Z,1014.11
2023-05-19T03:53:38.985Z,1014.13
2023-05-19T03:54:38.976Z,1014.05
2023-05-19T03:55:38.981Z,1014.11
2023-05-19T03:56:38.954Z,1014.08
2023-05-19T03:57:38.978Z,1014.11
2023-05-19T03:58:38.933Z,1014.09
2023-05-19T03:59:38.921Z,1014.10
2023-05-19T04:00:38.909Z,1014.12
2023-05-19T04:01:38.908Z,1014.10
2023-05-19T04:02:38.955Z,1014.15
2023-05-19T04:03:38.937Z,1014.12
2023-05-19T04:04:38.960Z,1014.10
2023-05-19T04:05:38.895Z,1014.12
2023-05-19T04:06:38.870Z,1014.09
2023-05-19T04:07:38.844Z,1014.13
2023-05-19T04:08:38.847Z,1014.13
2023-05-19T04:09:38.845Z,1014.13
2023-05-19T04:10:38.814Z,1014.12
2023-05-19T04:11:38.806Z,1014.17
2023-05-19T04:12:38.804Z,1014.17
2023-05-19T04:13:38.782Z,1014.12
2023-05-19T04:14:38.777Z,1014.14
2023-05-19T04:15:38.847Z,1014.15
2023-05-19T04:16:38.754Z,1014.15
2023-05-19T04:17:38.792Z,1014.16
2023-05-19T04:18:38.763Z,1014.17
2023-05-19T04:19:38.724Z,1014.18
2023-05-19T04:20:38.716Z,1014.17
2023-05-19T04:21:38.764Z,1014.18
2023-05-19T04:22:38.696Z,1014.23
2023-05-19T04:23:38.680Z,1014.20
2023-05-19T04:24:38.669Z,1014.24
2023-05-19T04:25:38.668Z,1014.22
2023-05-19T04:26:38.650Z,1014.23
2023-05-19T04:27:39.306Z,1014.24
2023-05-19T04:28:38.787Z,1014.26
2023-05-19T04:29:38.627Z,1014.23
2023-05-19T04:30:38.648Z,1014.22
2023-05-19T04:31:38.681Z,1014.25
2023-05-19T04:32:38.600Z,1014.26
2023-05-19T04:33:38.640Z,1014.29
2023-05-19T04:34:41.648Z,1014.27
2023-05-19T04:35:38.572Z,1014.31
2023-05-19T04:36:38.570Z,1014.27
2023-05-19T04:37:38.540Z,1014.28
2023-05-19T04:38:38.531Z,1014.28
2023-05-19T04:39:38.551Z,1014.28
2023-05-19T04:40:38.516Z,1014.29
2023-05-19T04:41:38.509Z,1014.34
2023-05-19T04:42:38.484Z,1014.29
2023-05-19T04:43:38.488Z,1014.34
2023-05-19T04:44:38.471Z,1014.33
2023-05-19T04:45:38.490Z,1014.34
2023-05-19T04:46:38.537Z,1014.34
2023-05-19T04:47:38.487Z,1014.26
2023-05-19T04:48:38.435Z,1014.35
2023-05-19T04:49:38.440Z,1014.35
2023-05-19T04:50:38.406Z,1014.33
2023-05-19T04:51:38.433Z,1014.23
2023-05-19T04:52:38.401Z,1014.19
2023-05-19T04:53:38.404Z,1014.22
2023-05-19T04:54:38.377Z,1014.25
2023-05-19T04:55:38.370Z,1014.31
2023-05-19T04:56:38.355Z,1014.24
2023-05-19T04:57:38.375Z,1014.27
2023-05-19T04:58:39.682Z,1014.31
2023-05-19T04:59:38.351Z,1014.31
2023-05-19T05:00:38.326Z,1014.26
2023-05-19T05:01:38.352Z,1014.20
2023-05-19T05:02:38.388Z,1014.24
2023-05-19T05:03:38.397Z,1014.26
2023-05-19T05:04:38.272Z,1014.24
2023-05-19T05:05:38.263Z,1014.23
2023-05-19T05:06:38.266Z,1014.25
2023-05-19T05:07:38.239Z,1014.30
2023-05-19T05:08:38.227Z,1014.29
2023-05-19T05:09:38.251Z,1014.26
2023-05-19T05:10:38.211Z,1014.17
2023-05-19T05:11:38.223Z,1014.24
2023-05-19T05:12:38.186Z,1014.24
2023-05-19T05:13:38.185Z,1014.28
2023-05-19T05:14:38.183Z,1014.24
2023-05-19T05:15:38.183Z,1014.15
2023-05-19T05:16:38.207Z,1014.25
2023-05-19T05:17:38.251Z,1014.22
2023-05-19T05:18:38.171Z,1014.23
2023-05-19T05:19:38.114Z,1014.21
2023-05-19T05:20:38.095Z,1014.17
2023-05-19T05:21:38.115Z,1014.22
2023-05-19T05:22:38.067Z,1014.18
2023-05-19T05:23:38.062Z,1014.24
2023-05-19T05:24:38.048Z,1014.20
2023-05-19T05:25:38.048Z,1014.22
2023-05-19T05:26:38.031Z,1014.22
2023-05-19T05:27:38.169Z,1014.24
2023-05-19T05:28:38.015Z,1014.22
2023-05-19T05:29:38.006Z,1014.20
2023-05-19T05:30:38.001Z,1014.24
2023-05-19T05:31:37.982Z,1014.21
2023-05-19T05:32:38.006Z,1014.27
2023-05-19T05:33:38.041Z,1014.28
2023-05-19T05:34:37.948Z,1014.27
2023-05-19T05:35:37.935Z,1014.33
2023-05-19T05:36:37.930Z,1014.19
2023-05-19T05:37:37.926Z,1014.23
2023-05-19T05:38:37.918Z,1014.27
2023-05-19T05:39:38.056Z,1014.26
2023-05-19T05:40:37.945Z,1014.34
2023-05-19T05:41:37.895Z,1014.27
2023-05-19T05:42:37.866Z,1014.31
2023-05-19T05:43:37.870Z,1014.31
2023-05-19T05:44:37.873Z,1014.32
2023-05-19T05:45:37.873Z,1014.38
2023-05-19T05:46:37.829Z,1014.30
2023-05-19T05:47:37.839Z,1014.31
2023-05-19T05:48:37.816Z,1014.32
2023-05-19T05:49:37.805Z,1014.30
2023-05-19T05:50:37.808Z,1014.30
2023-05-19T05:51:37.802Z,1014.33
2023-05-19T05:52:37.783Z,1014.31
2023-05-19T05:53:37.750Z,1014.29
2023-05-19T05:54:37.757Z,1014.29
2023-05-19T05:55:37.744Z,1014.31
2023-05-19T05:56:37.726Z,1014.33
2023-05-19T05:57:37.741Z,1014.32
2023-05-19T05:58:37.734Z,1014.33
2023-05-19T05:59:37.706Z,1014.34
2023-05-19T06:00:37.685Z,1014.33
2023-05-19T06:01:37.723Z,1014.32
2023-05-19T06:02:37.844Z,1014.31
2023-05-19T06:03:37.717Z,1014.35
2023-05-19T06:04:37.646Z,1014.36
2023-05-19T06:05:37.697Z,1014.38
2023-05-19T06:06:37.618Z,1014.40
2023-05-19T06:07:37.659Z,1014.36
2023-05-19T06:08:37.625Z,1014.33
2023-05-19T06:09:37.610Z,1014.36
2023-05-19T06:10:37.660Z,1014.41
2023-05-19T06:11:37.569Z,1014.39
2023-05-19T06:12:37.563Z,1014.40
2023-05-19T06:13:37.556Z,1014.38
2023-05-19T06:14:37.548Z,1014.41
2023-05-19T06:15:37.602Z,1014.40
2023-05-19T06:16:37.774Z,1014.39
2023-05-19T06:17:37.558Z,1014.38
2023-05-19T06:18:37.520Z,1014.40
2023-05-19T06:19:37.486Z,1014.40
2023-05-19T06:20:37.488Z,1014.38
2023-05-19T06:21:37.476Z,1014.41
2023-05-19T06:22:37.452Z,1014.42
2023-05-19T06:23:37.433Z,1014.34
2023-05-19T06:24:39.372Z,1014.41
2023-05-19T06:25:37.417Z,1014.46
2023-05-19T06:26:37.410Z,1014.45
2023-05-19T06:27:37.419Z,1014.41
2023-05-19T06:28:37.386Z,1014.37
2023-05-19T06:29:37.379Z,1014.44
2023-05-19T06:30:37.367Z,1014.43
2023-05-19T06:31:37.399Z,1014.40
2023-05-19T06:32:37.383Z,1014.44
2023-05-19T06:33:37.379Z,1014.43
2023-05-19T06:34:37.322Z,1014.39
2023-05-19T06:35:37.302Z,1014.38
2023-05-19T06:36:37.303Z,1014.37
2023-05-19T06:37:37.284Z,1014.33
2023-05-19T06:38:37.277Z,1014.35
2023-05-19T06:39:37.283Z,1014.38
2023-05-19T06:40:37.270Z,1014.33
2023-05-19T06:41:37.255Z,1014.36
2023-05-19T06:42:37.244Z,1014.36
2023-05-19T06:43:37.232Z,1014.39
2023-05-19T06:44:37.220Z,1014.36
2023-05-19T06:45:37.229Z,1014.40
2023-05-19T06:46:37.218Z,1014.34
2023-05-19T06:47:37.224Z,1014.32
2023-05-19T06:48:37.183Z,1014.35
2023-05-19T06:49:37.163Z,1014.35
2023-05-19T06:50:37.156Z,1014.35
2023-05-19T06:51:37.220Z,1014.39
2023-05-19T06:52:37.132Z,1014.40
2023-05-19T06:53:37.125Z,1014.42
2023-05-19T06:54:37.115Z,1014.39
2023-05-19T06:55:44.101Z,1014.40
2023-05-19T06:56:38.116Z,1014.39
2023-05-19T06:57:37.082Z,1014.39
2023-05-19T06:58:37.070Z,1014.38
2023-05-19T06:59:37.062Z,1014.42
2023-05-19T07:00:37.189Z,1014.43
2023-05-19T07:01:37.093Z,1014.44
2023-05-19T07:02:37.125Z,1014.42
2023-05-19T07:03:37.100Z,1014.39
2023-05-19T07:04:37.024Z,1014.34
2023-05-19T07:05:37.013Z,1014.40
2023-05-19T07:06:36.991Z,1014.39
2023-05-19T07:07:36.988Z,1014.37
2023-05-19T07:08:37.010Z,1014.40
2023-05-19T07:09:36.956Z,1014.38
2023-05-19T07:10:36.946Z,1014.33
2023-05-19T07:11:36.948Z,1014.40
2023-05-19T07:12:36.914Z,1014.39
2023-05-19T07:13:36.920Z,1014.38
2023-05-19T07:14:36.921Z,1014.39
2023-05-19T07:15:36.891Z,1014.42
2023-05-19T07:16:36.938Z,1014.44
2023-05-19T07:17:36.907Z,1014.42
2023-05-19T07:18:36.894Z,1014.39
2023-05-19T07:19:36.845Z,1014.42
2023-05-19T07:20:36.858Z,1014.38
2023-05-19T07:21:36.832Z,1014.41
2023-05-19T07:22:36.814Z,1014.30
2023-05-19T07:23:36.802Z,1014.37
2023-05-19T07:24:36.792Z,1014.38
2023-05-19T07:25:36.787Z,1014.38
2023-05-19T07:26:36.794Z,1014.36
2023-05-19T07:27:36.762Z,1014.37
2023-05-19T07:28:37.780Z,1014.41
2023-05-19T07:29:36.734Z,1014.39
2023-05-19T07:30:36.740Z,1014.38
2023-05-19T07:31:36.802Z,1014.44
2023-05-19T07:32:36.770Z,1014.35
2023-05-19T07:33:36.698Z,1014.40
2023-05-19T07:34:36.748Z,1014.39
2023-05-19T07:35:36.674Z,1014.40
2023-05-19T07:36:36.667Z,1014.43
2023-05-19T07:37:36.670Z,1014.41
2023-05-19T07:38:36.722Z,1014.46
2023-05-19T07:39:36.634Z,1014.39
2023-05-19T07:40:36.624Z,1014.39
2023-05-19T07:41:36.649Z,1014.39
2023-05-19T07:42:36.597Z,1014.42
2023-05-19T07:43:36.591Z,1014.42
2023-05-19T07:44:36.604Z,1014.46
2023-05-19T07:45:36.593Z,1014.45
2023-05-19T07:46:36.623Z,1014.47
2023-05-19T07:47:36.601Z,1014.45
2023-05-19T07:48:36.537Z,1014.44
2023-05-19T07:49:36.537Z,1014.43
2023-05-19T07:50:36.560Z,1014.45
2023-05-19T07:51:36.528Z,1014.45
2023-05-19T07:52:36.504Z,1014.46
2023-05-19T07:53:36.493Z,1014.44
2023-05-19T07:54:36.472Z,1014.42
2023-05-19T07:55:36.474Z,1014.47
2023-05-19T07:56:36.475Z,1014.48
2023-05-19T07:57:36.439Z,1014.43
2023-05-19T07:58:36.448Z,1014.46
2023-05-19T07:59:36.425Z,1014.49
2023-05-19T08:00:36.421Z,1014.50
2023-05-19T08:01:36.419Z,1014.48
2023-05-19T08:02:36.475Z,1014.36
2023-05-19T08:03:36.509Z,1014.42
2023-05-19T08:04:36.423Z,1014.43
2023-05-19T08:05:36.366Z,1014.38
2023-05-19T08:06:36.362Z,1014.40
2023-05-19T08:07:36.335Z,1014.41
2023-05-19T08:08:36.350Z,1014.42
2023-05-19T08:09:36.316Z,1014.45
2023-05-19T08:10:36.323Z,1014.41
2023-05-19T08:11:36.290Z,1014.42
2023-05-19T08:12:36.292Z,1014.40
2023-05-19T08:13:36.300Z,1014.46
2023-05-19T08:14:36.300Z,1014.43
2023-05-19T08:15:36.299Z,1014.41
2023-05-19T08:16:36.259Z,1014.37
2023-05-19T08:17:36.278Z,1014.36
2023-05-19T08:18:36.214Z,1014.33
2023-05-19T08:19:36.216Z,1014.29
2023-05-19T08:20:36.232Z,1014.33
2023-05-19T08:21:36.185Z,1014.31
2023-05-19T08:22:36.185Z,1014.32
2023-05-19T08:23:36.161Z,1014.31
2023-05-19T08:24:36.162Z,1014.34
2023-05-19T08:25:36.148Z,1014.34
2023-05-19T08:26:37.756Z,1014.38
2023-05-19T08:27:36.134Z,1014.35
2023-05-19T08:28:36.115Z,1014.34
2023-05-19T08:29:36.107Z,1014.30
2023-05-19T08:30:36.095Z,1014.32
2023-05-19T08:31:36.128Z,1014.36
2023-05-19T08:32:36.122Z,1014.34
2023-05-19T08:33:36.064Z,1014.34
2023-05-19T08:34:36.066Z,1014.34
2023-05-19T08:35:36.048Z,1014.36
2023-05-19T08:36:36.026Z,1014.38
2023-05-19T08:37:36.016Z,1014.38
2023-05-19T08:38:36.040Z,1014.41
2023-05-19T08:39:35.995Z,1014.33
2023-05-19T08:40:36.002Z,1014.41
2023-05-19T08:41:35.976Z,1014.35
2023-05-19T08:42:35.967Z,1014.34
2023-05-19T08:43:35.965Z,1014.35
2023-05-19T08:44:35.986Z,1014.38
2023-05-19T08:45:35.939Z,1014.39
2023-05-19T08:46:35.990Z,1014.39
2023-05-19T08:47:35.918Z,1014.34
2023-05-19T08:48:35.901Z,1014.37
2023-05-19T08:49:35.899Z,1014.36
2023-05-19T08:50:35.936Z,1014.39
2023-05-19T08:51:35.869Z,1014.31
2023-05-19T08:52:35.855Z,1014.39
2023-05-19T08:53:35.851Z,1014.36
2023-05-19T08:54:35.846Z,1014.31
2023-05-19T08:55:35.833Z,1014.30
2023-05-19T08:56:35.849Z,1014.32
2023-05-19T08:57:35.813Z,1014.31
2023-05-19T08:58:35.804Z,1014.31
2023-05-19T08:59:35.789Z,1014.38
2023-05-19T09:00:36.297Z,1014.30
2023-05-19T09:02:35.830Z,1014.30
2023-05-19T09:03:35.831Z,1014.28
2023-05-19T09:04:35.832Z,1014.33
2023-05-19T09:05:36.039Z,1014.27
2023-05-19T09:06:35.714Z,1014.30
2023-05-19T09:07:35.707Z,1014.31
2023-05-19T09:08:35.728Z,1014.28
2023-05-19T09:09:35.696Z,1014.26
2023-05-19T09:10:35.678Z,1014.21
2023-05-19T09:11:35.664Z,1014.18
2023-05-19T09:12:35.648Z,1014.20
2023-05-19T09:13:35.651Z,1014.19
2023-05-19T09:14:35.672Z,1014.20
2023-05-19T09:15:35.813Z,1014.21
2023-05-19T09:16:35.647Z,1014.19
2023-05-19T09:17:35.613Z,1014.15
2023-05-19T09:18:35.585Z,1014.22
2023-05-19T09:19:35.645Z,1014.21
2023-05-19T09:20:35.599Z,1014.16
2023-05-19T09:21:35.553Z,1014.20
2023-05-19T09:22:35.548Z,1014.21
2023-05-19T09:23:35.541Z,1014.19
2023-05-19T09:24:35.525Z,1014.17
2023-05-19T09:25:35.747Z,1014.17
2023-05-19T09:26:36.343Z,1014.17
2023-05-19T09:27:35.494Z,1014.18
2023-05-19T09:28:35.479Z,1014.18
2023-05-19T09:29:35.464Z,1014.15
2023-05-19T09:30:35.454Z,1014.13
2023-05-19T09:31:35.477Z,1014.10
2023-05-19T09:32:35.512Z,1014.08
2023-05-19T09:33:35.468Z,1014.04
2023-05-19T09:34:35.415Z,1014.04
2023-05-19T09:35:35.602Z,1014.06
2023-05-19T09:36:35.398Z,1014.06
2023-05-19T09:37:35.382Z,1014.01
2023-05-19T09:38:35.393Z,1014.07
2023-05-19T09:39:35.365Z,1014.06
2023-05-19T09:40:35.355Z,1014.09
2023-05-19T09:41:35.332Z,1014.07
2023-05-19T09:42:35.333Z,1014.05
2023-05-19T09:43:35.314Z,1014.07
2023-05-19T09:44:35.334Z,1014.08
2023-05-19T09:45:35.301Z,1014.10
2023-05-19T09:46:35.420Z,1014.09
2023-05-19T09:47:35.333Z,1014.10
2023-05-19T09:48:35.278Z,1014.14
2023-05-19T09:49:35.270Z,1014.11
2023-05-19T09:50:35.292Z,1014.15
2023-05-19T09:51:35.245Z,1014.13
2023-05-19T09:52:35.226Z,1014.08
2023-05-19T09:53:35.238Z,1014.12
2023-05-19T09:54:35.203Z,1014.11
2023-05-19T09:55:35.305Z,1014.14
2023-05-19T09:56:35.219Z,1014.10
2023-05-19T09:57:35.184Z,1014.12
2023-05-19T09:58:35.558Z,1014.08
2023-05-19T09:59:35.155Z,1014.09
2023-05-19T10:00:35.343Z,1014.11
2023-05-19T10:01:35.195Z,1014.12
2023-05-19T10:02:35.170Z,1014.12
2023-05-19T10:03:35.297Z,1014.08
2023-05-19T10:04:35.193Z,1014.08
2023-05-19T10:05:35.529Z,1014.09
2023-05-19T10:06:35.084Z,1014.11
2023-05-19T10:07:35.079Z,1014.14
2023-05-19T10:08:35.985Z,1014.13
2023-05-19T10:09:35.064Z,1014.14
2023-05-19T10:10:35.051Z,1014.13
2023-05-19T10:11:35.033Z,1014.15
2023-05-19T10:12:35.040Z,1014.13
2023-05-19T10:13:35.017Z,1014.18
2023-05-19T10:14:35.029Z,1014.13
2023-05-19T10:15:40.780Z,1014.16
2023-05-19T10:16:36.045Z,1014.13
2023-05-19T10:17:35.011Z,1014.21
2023-05-19T10:18:35.247Z,1014.24
2023-05-19T10:19:35.053Z,1014.23
2023-05-19T10:20:35.213Z,1014.18
2023-05-19T10:21:34.925Z,1014.13
2023-05-19T10:22:34.925Z,1014.19
2023-05-19T10:23:34.907Z,1014.17
2023-05-19T10:24:34.899Z,1014.09
2023-05-19T10:25:35.154Z,1014.17
2023-05-19T10:26:34.888Z,1014.15
2023-05-19T10:27:34.866Z,1014.08
2023-05-19T10:28:34.850Z,1014.09
2023-05-19T10:29:34.860Z,1014.10
2023-05-19T10:30:34.830Z,1014.06
2023-05-19T10:31:34.883Z,1013.99
2023-05-19T10:32:34.960Z,1014.01
2023-05-19T10:33:34.808Z,1014.01
2023-05-19T10:34:34.779Z,1014.03
2023-05-19T10:35:35.052Z,1014.00
2023-05-19T10:36:34.764Z,1014.05
2023-05-19T10:37:34.754Z,1014.03
2023-05-19T10:38:34.773Z,1014.01
2023-05-19T10:39:34.728Z,1013.97
2023-05-19T10:40:34.729Z,1014.00
2023-05-19T10:41:34.713Z,1013.95
2023-05-19T10:42:34.704Z,1013.97
2023-05-19T10:43:34.689Z,1013.97
2023-05-19T10:44:34.711Z,1013.98
2023-05-19T10:45:35.041Z,1013.94
2023-05-19T10:46:34.747Z,1013.95
2023-05-19T10:47:34.663Z,1013.91
2023-05-19T10:48:34.653Z,1013.83
2023-05-19T10:49:34.646Z,1013.90
2023-05-19T10:50:34.673Z,1013.88
2023-05-19T10:51:34.633Z,1013.92
2023-05-19T10:52:34.595Z,1013.91
2023-05-19T10:53:34.633Z,1013.89
2023-05-19T10:54:34.573Z,1013.90
2023-05-19T10:55:34.693Z,1013.82
2023-05-19T10:56:34.594Z,1013.91
2023-05-19T10:57:34.601Z,1013.88
2023-05-19T10:58:34.537Z,1013.92
2023-05-19T10:59:34.529Z,1013.83
2023-05-19T11:00:34.520Z,1013.94
2023-05-19T11:01:34.574Z,1013.92
2023-05-19T11:02:34.539Z,1013.97
2023-05-19T11:03:34.571Z,1013.93
2023-05-19T11:04:34.542Z,1013.93
2023-05-19T11:05:34.742Z,1013.95
2023-05-19T11:06:34.454Z,1013.91
2023-05-19T11:07:34.453Z,1013.91
2023-05-19T11:08:34.471Z,1013.95
2023-05-19T11:09:40.382Z,1013.96
2023-05-19T11:10:35.428Z,1013.93
2023-05-19T11:11:34.916Z,1013.91
2023-05-19T11:12:34.390Z,1013.94
2023-05-19T11:13:34.384Z,1013.95
2023-05-19T11:14:34.410Z,1013.97
2023-05-19T11:15:34.562Z,1013.93
2023-05-19T11:16:34.370Z,1013.93
2023-05-19T11:17:35.054Z,1013.91
2023-05-19T11:18:34.330Z,1013.91
2023-05-19T11:19:34.320Z,1013.92
2023-05-19T11:20:34.367Z,1013.90
2023-05-19T11:21:34.434Z,1013.92
2023-05-19T11:22:34.287Z,1013.98
2023-05-19T11:23:35.592Z,1013.98
2023-05-19T11:24:34.265Z,1013.95
2023-05-19T11:25:34.361Z,1013.97
2023-05-19T11:26:34.272Z,1014.04
2023-05-19T11:27:34.237Z,1014.01
2023-05-19T11:28:34.241Z,1014.10
2023-05-19T11:29:34.894Z,1014.01
2023-05-19T11:30:34.208Z,1014.00
2023-05-19T11:31:34.243Z,1014.00
2023-05-19T11:32:34.229Z,1014.01
2023-05-19T11:33:34.172Z,1014.02
2023-05-19T11:34:34.158Z,1014.01
2023-05-19T11:35:36.130Z,1013.98
2023-05-19T11:36:34.152Z,1014.01
2023-05-19T11:37:34.146Z,1014.06
2023-05-19T11:38:34.140Z,1014.02
2023-05-19T11:39:34.114Z,1014.03
2023-05-19T11:40:34.108Z,1014.04
2023-05-19T11:41:34.087Z,1014.08
2023-05-19T11:42:34.086Z,1014.12
2023-05-19T11:43:34.078Z,1014.09
2023-05-19T11:44:34.086Z,1014.06
2023-05-19T11:45:34.233Z,1014.12
2023-05-19T11:46:34.068Z,1014.10
2023-05-19T11:47:45.899Z,1014.10
2023-05-19T11:48:35.054Z,1014.05
2023-05-19T11:49:34.014Z,1014.06
2023-05-19T11:50:34.036Z,1014.05
2023-05-19T11:51:34.006Z,1014.04
2023-05-19T11:52:33.986Z,1014.04
2023-05-19T11:53:35.239Z,1014.06
2023-05-19T11:54:33.960Z,1014.09
2023-05-19T11:55:33.955Z,1014.13
2023-05-19T11:56:33.978Z,1014.10
2023-05-19T11:57:33.940Z,1014.07
2023-05-19T11:58:33.933Z,1014.05
2023-05-19T11:59:35.785Z,1014.08
2023-05-19T12:00:33.926Z,1014.06
2023-05-19T12:01:33.934Z,1014.08
2023-05-19T12:02:33.990Z,1014.07
2023-05-19T12:03:33.913Z,1014.08
2023-05-19T12:04:33.910Z,1014.07
2023-05-19T12:05:36.546Z,1014.07
2023-05-19T12:06:33.889Z,1014.09